Time;durP1;ratioP1;P1;durP2;ratioP2;P2;SDS_P1;SDS_P2;PMS_P1;PMS_P2;Temp;Humidity;BMP_temperature;BMP_pressure;BME280_temperature;BME280_humidity;BME280_pressure;Samples;Min_cycle;Max_cycle;Signal;HPM_P1;HPM_P2
2022/11/18 00:01:33;;;;;;;;;;;19.10;99.90;;;;;;5071917;28;19930;-69
2022/11/18 00:04:01;;;;;;;;;;;19.10;99.90;;;;;;5072547;28;19913;-68
2022/11/18 00:06:28;;;;;;;;;;;19.20;99.90;;;;;;5073452;28;19912;-68
2022/11/18 00:08:55;;;;;;;;;;;19.40;99.90;;;;;;5073177;28;20367;-68
2022/11/18 00:14:26;;;;;;;;;;;19.70;99.90;;;;;;5072469;28;19927;-68
2022/11/18 00:16:54;;;;;;;;;;;20.00;99.90;;;;;;5073039;28;19908;-69
2022/11/18 00:19:22;;;;;;;;;;;20.10;99.90;;;;;;5073143;28;20008;-69
2022/11/18 00:21:49;;;;;;;;;;;19.90;99.90;;;;;;5073177;28;19909;-69
2022/11/18 00:24:16;;;;;;;;;;;19.70;99.90;;;;;;5073271;28;19915;-68
2022/11/18 00:26:42;;;;;;;;;;;19.70;99.90;;;;;;5073228;28;20279;-68
2022/11/18 00:29:10;;;;;;;;;;;19.70;99.90;;;;;;5071321;28;19948;-67
2022/11/18 00:31:36;;;;;;;;;;;19.90;99.90;;;;;;5072126;28;20441;-68
2022/11/18 00:34:03;;;;;;;;;;;20.20;99.50;;;;;;5071155;28;20386;-69
2022/11/18 00:36:30;;;;;;;;;;;20.00;99.20;;;;;;5073099;28;19915;-69
2022/11/18 00:38:56;;;;;;;;;;;19.80;99.50;;;;;;5072866;28;19998;-69
2022/11/18 00:41:23;;;;;;;;;;;19.70;99.90;;;;;;5073239;28;20042;-69
2022/11/18 00:43:50;;;;;;;;;;;19.70;99.20;;;;;;5073432;28;20313;-68
2022/11/18 00:46:17;;;;;;;;;;;19.90;98.70;;;;;;5072113;28;19916;-68
2022/11/18 00:48:43;;;;;;;;;;;20.40;99.00;;;;;;5072708;28;20390;-68
2022/11/18 00:51:13;;;;;;;;;;;20.70;98.50;;;;;;5072926;28;19909;-68
2022/11/18 00:53:39;;;;;;;;;;;21.20;97.80;;;;;;5072827;28;20342;-69
2022/11/18 00:56:07;;;;;;;;;;;21.30;95.60;;;;;;5072710;28;19920;-69
2022/11/18 00:58:34;;;;;;;;;;;21.70;95.80;;;;;;5072867;28;19963;-68
2022/11/18 01:01:01;;;;;;;;;;;21.50;95.80;;;;;;5070809;28;19909;-68
2022/11/18 01:03:28;;;;;;;;;;;21.50;95.40;;;;;;5071883;28;20317;-69
2022/11/18 01:05:54;;;;;;;;;;;21.90;95.60;;;;;;5072635;28;19943;-68
2022/11/18 01:08:21;;;;;;;;;;;22.00;94.40;;;;;;5072923;28;20333;-68
2022/11/18 01:10:49;;;;;;;;;;;22.00;94.60;;;;;;5072438;28;19962;-69
2022/11/18 01:13:20;;;;;;;;;;;22.00;95.50;;;;;;5072677;28;20011;-64
2022/11/18 01:15:48;;;;;;;;;;;22.10;95.70;;;;;;5075223;28;20077;-66
2022/11/18 01:18:15;;;;;;;;;;;22.00;95.80;;;;;;5075852;28;19958;-68
2022/11/18 01:20:42;;;;;;;;;;;22.10;95.40;;;;;;5075206;28;19962;-68
2022/11/18 01:23:09;;;;;;;;;;;22.00;95.70;;;;;;5074002;28;20359;-67
2022/11/18 01:25:36;;;;;;;;;;;21.90;95.90;;;;;;5074058;28;19999;-67
2022/11/18 01:28:03;;;;;;;;;;;21.70;96.60;;;;;;5074100;28;19909;-68
2022/11/18 01:30:32;;;;;;;;;;;21.80;95.00;;;;;;5073176;28;20275;-67
2022/11/18 01:32:59;;;;;;;;;;;22.30;96.00;;;;;;5071910;28;19924;-67
2022/11/18 01:35:25;;;;;;;;;;;21.30;96.10;;;;;;5074677;28;20003;-67
2022/11/18 01:37:52;;;;;;;;;;;21.00;96.00;;;;;;5076177;28;19909;-68
2022/11/18 01:40:19;;;;;;;;;;;21.00;96.70;;;;;;5076052;28;19908;-68
2022/11/18 01:42:45;;;;;;;;;;;20.90;96.50;;;;;;5075802;28;19993;-67
2022/11/18 01:45:15;;;;;;;;;;;20.80;96.50;;;;;;5075227;28;19909;-68
2022/11/18 01:47:47;;;;;;;;;;;20.80;96.50;;;;;;5075724;28;20393;-67
2022/11/18 01:50:16;;;;;;;;;;;20.80;95.90;;;;;;5076010;28;20361;-67
2022/11/18 01:52:42;;;;;;;;;;;20.80;97.10;;;;;;5075841;28;19908;-67
2022/11/18 01:55:14;;;;;;;;;;;21.10;97.00;;;;;;5075353;28;19920;-66
2022/11/18 01:57:41;;;;;;;;;;;21.10;96.80;;;;;;5075643;28;19916;-67
2022/11/18 02:00:08;;;;;;;;;;;21.10;96.70;;;;;;5074570;28;19912;-67
2022/11/18 02:02:38;;;;;;;;;;;20.90;96.30;;;;;;5075024;28;20410;-67
2022/11/18 02:05:06;;;;;;;;;;;21.00;96.60;;;;;;5075422;28;19912;-67
2022/11/18 02:07:35;;;;;;;;;;;21.00;95.70;;;;;;5075668;28;19920;-67
2022/11/18 02:10:03;;;;;;;;;;;20.90;95.80;;;;;;5075503;28;19962;-65
2022/11/18 02:12:30;;;;;;;;;;;20.90;95.10;;;;;;5075371;28;19999;-66
2022/11/18 02:14:56;;;;;;;;;;;20.40;96.50;;;;;;5074529;28;19916;-65
2022/11/18 02:17:28;;;;;;;;;;;20.70;96.90;;;;;;5075442;28;20325;-64
2022/11/18 02:20:01;;;;;;;;;;;20.80;96.80;;;;;;5075414;28;20004;-61
2022/11/18 02:22:45;;;;;;;;;;;20.90;97.50;;;;;;5075385;28;19954;-62
2022/11/18 02:25:20;;;;;;;;;;;21.00;97.10;;;;;;5074892;28;20007;-62
2022/11/18 02:27:46;;;;;;;;;;;21.00;96.80;;;;;;5073753;28;19912;-61
2022/11/18 02:30:14;;;;;;;;;;;21.00;97.00;;;;;;5074402;28;19932;-61
2022/11/18 02:32:44;;;;;;;;;;;21.00;97.40;;;;;;5074943;28;19962;-62
2022/11/18 02:35:24;;;;;;;;;;;21.00;98.10;;;;;;5074918;28;19908;-63
2022/11/18 02:37:56;;;;;;;;;;;21.00;96.50;;;;;;5074931;28;20003;-63
2022/11/18 02:40:25;;;;;;;;;;;21.00;96.60;;;;;;5074940;28;19962;-61
2022/11/18 02:42:55;;;;;;;;;;;21.20;96.20;;;;;;5073925;28;20389;-62
2022/11/18 02:45:23;;;;;;;;;;;21.10;96.60;;;;;;5074796;28;19958;-63
2022/11/18 02:47:49;;;;;;;;;;;21.30;96.90;;;;;;5074625;28;19908;-62
2022/11/18 02:50:19;;;;;;;;;;;21.20;97.40;;;;;;5074747;28;19915;-62
2022/11/18 02:52:46;;;;;;;;;;;21.20;96.60;;;;;;5074644;28;19995;-61
2022/11/18 02:55:14;;;;;;;;;;;20.90;97.10;;;;;;5074542;28;20447;-61
2022/11/18 02:57:42;;;;;;;;;;;20.90;98.50;;;;;;5073795;28;19959;-62
2022/11/18 03:00:09;;;;;;;;;;;21.00;98.30;;;;;;5074024;28;20381;-62
2022/11/18 03:02:42;;;;;;;;;;;21.20;97.40;;;;;;5074452;28;19913;-61
2022/11/18 03:05:27;;;;;;;;;;;21.10;97.60;;;;;;5074479;28;20392;-63
2022/11/18 03:07:55;;;;;;;;;;;20.90;98.00;;;;;;5074693;28;19939;-62
2022/11/18 03:10:23;;;;;;;;;;;20.90;98.60;;;;;;5074167;28;19954;-61
2022/11/18 03:12:50;;;;;;;;;;;21.00;97.60;;;;;;5073038;28;20487;-61
2022/11/18 03:15:24;;;;;;;;;;;20.80;97.90;;;;;;5074179;28;19915;-61
2022/11/18 03:17:51;;;;;;;;;;;20.80;98.10;;;;;;5073933;28;20378;-62
2022/11/18 03:20:24;;;;;;;;;;;20.70;98.10;;;;;;5072992;28;19920;-61
2022/11/18 03:22:57;;;;;;;;;;;20.80;96.80;;;;;;5073913;28;19908;-62
2022/11/18 03:25:30;;;;;;;;;;;20.80;97.20;;;;;;5074076;28;19981;-64
2022/11/18 03:28:03;;;;;;;;;;;21.00;97.40;;;;;;5073243;28;19913;-62
2022/11/18 03:30:30;;;;;;;;;;;20.90;97.60;;;;;;5073369;28;19927;-61
2022/11/18 03:33:04;;;;;;;;;;;21.00;97.00;;;;;;5073561;28;20674;-61
2022/11/18 03:35:33;;;;;;;;;;;20.80;97.60;;;;;;5073995;28;19908;-62
2022/11/18 03:38:04;;;;;;;;;;;20.90;97.20;;;;;;5073652;28;19970;-62
2022/11/18 03:40:31;;;;;;;;;;;20.80;97.70;;;;;;5073930;28;19978;-61
2022/11/18 03:43:18;;;;;;;;;;;20.60;99.10;;;;;;5072633;28;19919;-62
2022/11/18 03:45:49;;;;;;;;;;;20.70;98.80;;;;;;5073490;28;20003;-62
2022/11/18 03:48:22;;;;;;;;;;;20.80;99.40;;;;;;5073419;28;19915;-61
2022/11/18 03:50:57;;;;;;;;;;;20.60;99.90;;;;;;5073458;28;20409;-61
2022/11/18 03:53:26;;;;;;;;;;;20.50;99.90;;;;;;5073462;28;19920;-61
2022/11/18 03:55:56;;;;;;;;;;;20.60;99.80;;;;;;5073528;28;19920;-61
2022/11/18 03:58:32;;;;;;;;;;;20.40;99.70;;;;;;5071924;28;19912;-61
2022/11/18 04:01:03;;;;;;;;;;;20.40;99.90;;;;;;5072491;28;20326;-61
2022/11/18 04:03:30;;;;;;;;;;;20.50;99.90;;;;;;5073306;28;19908;-60
2022/11/18 04:06:04;;;;;;;;;;;20.60;99.50;;;;;;5073452;28;20345;-61
2022/11/18 04:08:34;;;;;;;;;;;20.50;99.80;;;;;;5072151;28;19908;-61
2022/11/18 04:11:04;;;;;;;;;;;20.40;99.90;;;;;;5071816;28;20094;-63
2022/11/18 04:13:32;;;;;;;;;;;20.50;99.90;;;;;;5072198;28;19943;-61
2022/11/18 04:15:59;;;;;;;;;;;20.60;99.70;;;;;;5073231;28;19912;-61
2022/11/18 04:18:26;;;;;;;;;;;20.70;99.90;;;;;;5073227;28;19979;-60
2022/11/18 04:20:53;;;;;;;;;;;20.80;99.90;;;;;;5072850;28;19909;-61
2022/11/18 04:23:19;;;;;;;;;;;20.70;99.90;;;;;;5073361;28;20251;-61
2022/11/18 04:25:46;;;;;;;;;;;20.70;99.90;;;;;;5072315;28;19909;-62
2022/11/18 04:28:13;;;;;;;;;;;20.80;99.90;;;;;;5072999;28;20446;-66
2022/11/18 04:30:39;;;;;;;;;;;20.70;99.90;;;;;;5073115;28;20280;-61
2022/11/18 04:33:06;;;;;;;;;;;20.60;99.90;;;;;;5072786;28;19916;-61
2022/11/18 04:35:32;;;;;;;;;;;20.70;99.90;;;;;;5073244;28;19908;-67
2022/11/18 04:37:59;;;;;;;;;;;20.70;99.90;;;;;;5073196;28;20324;-64
2022/11/18 04:40:26;;;;;;;;;;;20.90;99.90;;;;;;5072873;28;20381;-64
2022/11/18 04:42:52;;;;;;;;;;;20.80;99.70;;;;;;5072752;28;19915;-65
2022/11/18 04:45:19;;;;;;;;;;;20.60;98.80;;;;;;5071263;28;19913;-68
2022/11/18 04:47:46;;;;;;;;;;;20.30;99.30;;;;;;5072805;28;19909;-65
2022/11/18 04:50:12;;;;;;;;;;;20.40;99.40;;;;;;5075472;28;19961;-66
2022/11/18 04:52:39;;;;;;;;;;;20.60;99.70;;;;;;5076839;28;20317;-65
2022/11/18 04:55:06;;;;;;;;;;;20.60;99.60;;;;;;5076381;28;20391;-63
2022/11/18 04:57:32;;;;;;;;;;;20.50;99.90;;;;;;5076005;28;19912;-67
2022/11/18 04:59:59;;;;;;;;;;;20.50;99.90;;;;;;5076920;28;20370;-67
2022/11/18 05:02:28;;;;;;;;;;;20.70;99.90;;;;;;5076734;28;20003;-67
2022/11/18 05:04:55;;;;;;;;;;;20.40;99.90;;;;;;5076425;28;20282;-63
2022/11/18 05:07:22;;;;;;;;;;;20.50;99.90;;;;;;5076868;28;19909;-65
2022/11/18 05:09:48;;;;;;;;;;;20.40;99.90;;;;;;5076669;28;20254;-68
2022/11/18 05:14:59;;;;;;;;;;;20.30;99.90;;;;;;5076103;28;20275;-68
2022/11/18 05:17:26;;;;;;;;;;;20.50;99.90;;;;;;5076370;28;20307;-64
2022/11/18 05:19:53;;;;;;;;;;;20.50;99.90;;;;;;5076468;28;19931;-68
2022/11/18 05:22:20;;;;;;;;;;;20.40;99.90;;;;;;5076397;28;20290;-66
2022/11/18 05:24:46;;;;;;;;;;;20.20;99.90;;;;;;5075490;28;19912;-68
2022/11/18 05:27:14;;;;;;;;;;;20.20;99.90;;;;;;5076355;28;20050;-64
2022/11/18 05:29:40;;;;;;;;;;;20.20;99.90;;;;;;5076505;28;20324;-63
2022/11/18 05:32:07;;;;;;;;;;;20.20;99.90;;;;;;5076152;28;20282;-66
2022/11/18 05:34:33;;;;;;;;;;;20.10;99.90;;;;;;5076258;28;20379;-68
2022/11/18 05:37:00;;;;;;;;;;;20.00;99.90;;;;;;5076030;28;19931;-64
2022/11/18 05:39:27;;;;;;;;;;;20.00;99.90;;;;;;5075507;28;19974;-62
2022/11/18 05:44:38;;;;;;;;;;;19.90;99.90;;;;;;5076241;28;19975;-65
2022/11/18 05:47:05;;;;;;;;;;;19.60;99.90;;;;;;5075681;28;20394;-67
2022/11/18 05:49:31;;;;;;;;;;;19.60;99.90;;;;;;5076028;28;20002;-65
2022/11/18 05:51:58;;;;;;;;;;;19.50;99.90;;;;;;5073621;28;20287;-63
2022/11/18 05:54:25;;;;;;;;;;;19.50;99.90;;;;;;5073011;28;19916;-62
2022/11/18 05:56:52;;;;;;;;;;;19.70;99.90;;;;;;5073248;28;19921;-62
2022/11/18 05:59:19;;;;;;;;;;;19.70;99.90;;;;;;5073797;28;19909;-62
2022/11/18 06:01:52;;;;;;;;;;;19.60;99.90;;;;;;5073471;28;19909;-64
2022/11/18 06:04:48;;;;;;;;;;;19.60;99.90;;;;;;5073273;28;19916;-63
2022/11/18 06:07:16;;;;;;;;;;;19.50;99.90;;;;;;5056073;28;19920;-62
2022/11/18 06:09:44;;;;;;;;;;;19.40;99.90;;;;;;5072642;28;19955;-62
2022/11/18 06:12:14;;;;;;;;;;;19.40;99.90;;;;;;5073258;28;19913;-63
2022/11/18 06:14:42;;;;;;;;;;;19.40;99.90;;;;;;5073414;28;19920;-63
2022/11/18 06:17:14;;;;;;;;;;;19.60;99.90;;;;;;5072729;28;19916;-64
2022/11/18 06:19:40;;;;;;;;;;;19.50;99.90;;;;;;5073484;28;19961;-62
2022/11/18 06:22:08;;;;;;;;;;;19.30;99.90;;;;;;5073397;28;19991;-66
2022/11/18 06:24:35;;;;;;;;;;;19.40;99.90;;;;;;5072547;28;19912;-63
2022/11/18 06:27:02;;;;;;;;;;;19.30;99.90;;;;;;5072295;28;19986;-62
2022/11/18 06:29:29;;;;;;;;;;;19.30;99.90;;;;;;5073090;28;19916;-61
2022/11/18 06:31:56;;;;;;;;;;;19.20;99.90;;;;;;5072713;28;20367;-63
2022/11/18 06:34:23;;;;;;;;;;;19.20;99.90;;;;;;5073027;28;19924;-62
2022/11/18 06:36:49;;;;;;;;;;;19.20;99.90;;;;;;5072757;28;19939;-62
2022/11/18 06:39:16;;;;;;;;;;;19.20;99.90;;;;;;5072079;28;20465;-65
2022/11/18 06:41:42;;;;;;;;;;;19.10;99.90;;;;;;5072933;28;19917;-63
2022/11/18 06:44:12;;;;;;;;;;;19.20;99.90;;;;;;5072588;28;19912;-63
2022/11/18 06:46:54;;;;;;;;;;;19.00;99.90;;;;;;5072689;28;19916;-66
2022/11/18 06:49:21;;;;;;;;;;;18.90;99.90;;;;;;5072855;28;19909;-63
2022/11/18 06:51:48;;;;;;;;;;;18.80;99.90;;;;;;5072564;28;19908;-62
2022/11/18 06:54:14;;;;;;;;;;;18.80;99.90;;;;;;5071844;28;20394;-63
2022/11/18 06:56:41;;;;;;;;;;;18.70;99.90;;;;;;5071367;28;19959;-62
2022/11/18 06:59:07;;;;;;;;;;;18.70;99.90;;;;;;5072413;28;19912;-62
2022/11/18 07:01:35;;;;;;;;;;;18.80;99.90;;;;;;5072357;28;19918;-62
2022/11/18 07:04:02;;;;;;;;;;;18.70;99.90;;;;;;5072428;28;19909;-61
2022/11/18 07:06:30;;;;;;;;;;;18.60;99.90;;;;;;5072341;28;19919;-65
2022/11/18 07:08:58;;;;;;;;;;;18.60;99.90;;;;;;5071262;28;19920;-61
2022/11/18 07:11:26;;;;;;;;;;;18.70;99.90;;;;;;5071746;28;19920;-61
2022/11/18 07:13:52;;;;;;;;;;;18.70;99.90;;;;;;5071938;28;19920;-61
2022/11/18 07:16:21;;;;;;;;;;;18.80;99.90;;;;;;5072288;28;19912;-62
2022/11/18 07:18:48;;;;;;;;;;;18.80;99.90;;;;;;5072054;28;19913;-61
2022/11/18 07:21:17;;;;;;;;;;;18.80;99.90;;;;;;5072047;28;19915;-62
2022/11/18 07:23:44;;;;;;;;;;;18.80;99.90;;;;;;5071166;28;19913;-61
2022/11/18 07:26:11;;;;;;;;;;;18.70;99.90;;;;;;5071388;28;19917;-61
2022/11/18 07:28:38;;;;;;;;;;;18.70;99.90;;;;;;5072134;28;19909;-64
2022/11/18 07:31:06;;;;;;;;;;;18.70;99.90;;;;;;5071642;28;19912;-62
2022/11/18 07:33:33;;;;;;;;;;;18.60;99.90;;;;;;5072012;28;19917;-63
2022/11/18 07:36:01;;;;;;;;;;;18.50;99.90;;;;;;5071800;28;19915;-62
2022/11/18 07:38:28;;;;;;;;;;;18.50;99.90;;;;;;5071578;28;19928;-62
2022/11/18 07:40:55;;;;;;;;;;;18.50;99.90;;;;;;5071824;28;19909;-62
2022/11/18 07:43:21;;;;;;;;;;;18.50;99.90;;;;;;5071679;28;19943;-62
2022/11/18 07:45:48;;;;;;;;;;;18.50;99.90;;;;;;5071600;28;19909;-62
2022/11/18 07:48:15;;;;;;;;;;;18.50;99.90;;;;;;5071422;28;19935;-66
2022/11/18 07:50:41;;;;;;;;;;;18.40;99.90;;;;;;5071331;28;20373;-62
2022/11/18 07:53:08;;;;;;;;;;;18.40;99.90;;;;;;5070499;28;20314;-63
2022/11/18 07:55:35;;;;;;;;;;;18.40;99.90;;;;;;5071595;28;20004;-62
2022/11/18 07:58:02;;;;;;;;;;;18.40;99.90;;;;;;5071828;28;20326;-62
2022/11/18 08:00:28;;;;;;;;;;;18.40;99.90;;;;;;5071547;28;19956;-62
2022/11/18 08:02:55;;;;;;;;;;;18.30;99.90;;;;;;5071005;28;19936;-62
2022/11/18 08:05:22;;;;;;;;;;;18.30;99.90;;;;;;5071794;28;19908;-63
2022/11/18 08:07:48;;;;;;;;;;;18.30;99.90;;;;;;5069752;28;19974;-62
2022/11/18 08:10:15;;;;;;;;;;;18.20;99.90;;;;;;5070428;28;19919;-62
2022/11/18 08:12:42;;;;;;;;;;;18.20;99.90;;;;;;5072320;28;20310;-61
2022/11/18 08:15:09;;;;;;;;;;;18.20;99.90;;;;;;5073286;28;20002;-62
2022/11/18 08:17:35;;;;;;;;;;;18.10;99.90;;;;;;5073409;28;19908;-62
2022/11/18 08:20:02;;;;;;;;;;;18.10;99.90;;;;;;5073386;28;20450;-62
2022/11/18 08:22:29;;;;;;;;;;;18.00;99.90;;;;;;5072589;28;19923;-62
2022/11/18 08:24:55;;;;;;;;;;;17.90;99.90;;;;;;5072208;28;19952;-62
2022/11/18 08:27:22;;;;;;;;;;;18.00;99.90;;;;;;5073384;28;20338;-61
2022/11/18 08:29:48;;;;;;;;;;;17.90;99.90;;;;;;5073287;28;19909;-61
2022/11/18 08:32:15;;;;;;;;;;;18.00;99.90;;;;;;5073171;28;19957;-63
2022/11/18 08:34:42;;;;;;;;;;;17.90;99.90;;;;;;5073059;28;19917;-61
2022/11/18 08:37:08;;;;;;;;;;;17.90;99.90;;;;;;5071893;28;19919;-63
2022/11/18 08:39:35;;;;;;;;;;;17.90;99.90;;;;;;5072338;28;19958;-63
2022/11/18 08:42:02;;;;;;;;;;;17.90;99.90;;;;;;5073053;28;19908;-63
2022/11/18 08:44:32;;;;;;;;;;;17.90;99.90;;;;;;5072954;28;20359;-62
2022/11/18 08:46:58;;;;;;;;;;;17.90;99.90;;;;;;5072917;28;19909;-61
2022/11/18 08:49:25;;;;;;;;;;;17.90;99.90;;;;;;5073018;28;19909;-63
2022/11/18 08:51:52;;;;;;;;;;;17.80;99.90;;;;;;5072367;28;20317;-62
2022/11/18 08:54:18;;;;;;;;;;;17.80;99.90;;;;;;5072910;28;19916;-62
2022/11/18 08:56:45;;;;;;;;;;;17.80;99.90;;;;;;5072885;28;19928;-62
2022/11/18 08:59:12;;;;;;;;;;;17.70;99.90;;;;;;5072859;28;19908;-63
2022/11/18 09:01:41;;;;;;;;;;;17.70;99.90;;;;;;5072771;28;20355;-63
2022/11/18 09:04:07;;;;;;;;;;;17.70;99.90;;;;;;5072980;28;19935;-62
2022/11/18 09:06:37;;;;;;;;;;;17.70;99.90;;;;;;5071949;28;20329;-62
2022/11/18 09:09:03;;;;;;;;;;;17.60;99.90;;;;;;5071688;28;20355;-62
2022/11/18 09:11:30;;;;;;;;;;;17.60;99.90;;;;;;5072676;28;19957;-62
2022/11/18 09:13:58;;;;;;;;;;;17.60;99.90;;;;;;5072847;28;20021;-61
2022/11/18 09:16:26;;;;;;;;;;;17.60;99.90;;;;;;5072688;28;20355;-62
2022/11/18 09:18:52;;;;;;;;;;;17.50;99.90;;;;;;5072446;28;19916;-62
2022/11/18 09:21:19;;;;;;;;;;;17.50;99.90;;;;;;5071882;28;19999;-63
2022/11/18 09:23:46;;;;;;;;;;;17.50;99.90;;;;;;5072607;28;20389;-62
2022/11/18 09:26:14;;;;;;;;;;;17.50;99.90;;;;;;5072499;28;19920;-61
2022/11/18 09:28:41;;;;;;;;;;;17.50;99.90;;;;;;5072526;28;19953;-61
2022/11/18 09:31:09;;;;;;;;;;;17.50;99.90;;;;;;5072212;28;19957;-61
2022/11/18 09:33:36;;;;;;;;;;;17.50;99.90;;;;;;5072379;28;19985;-61
2022/11/18 09:36:04;;;;;;;;;;;17.50;99.90;;;;;;5073353;28;20346;-61
2022/11/18 09:38:31;;;;;;;;;;;17.50;99.90;;;;;;5073783;28;19924;-61
2022/11/18 09:41:06;;;;;;;;;;;17.50;99.90;;;;;;5076240;28;20035;-62
2022/11/18 09:43:51;;;;;;;;;;;17.50;99.90;;;;;;5076041;28;20295;-62
2022/11/18 09:46:24;;;;;;;;;;;17.50;99.90;;;;;;5075975;28;19962;-62
2022/11/18 09:51:39;;;;;;;;;;;17.40;99.90;;;;;;5075546;28;19916;-62
2022/11/18 09:54:32;;;;;;;;;;;17.50;99.90;;;;;;5075366;28;19927;-62
2022/11/18 09:56:59;;;;;;;;;;;17.40;99.90;;;;;;5071950;28;20011;-62
2022/11/18 09:59:27;;;;;;;;;;;17.30;99.90;;;;;;5075719;28;19908;-62
2022/11/18 10:02:02;;;;;;;;;;;17.30;99.90;;;;;;5075603;28;19908;-62
2022/11/18 10:04:29;;;;;;;;;;;17.30;99.90;;;;;;5075802;28;19931;-62
2022/11/18 10:06:56;;;;;;;;;;;17.30;99.90;;;;;;5074557;28;19913;-61
2022/11/18 10:09:39;;;;;;;;;;;17.30;99.90;;;;;;5075730;28;19966;-61
2022/11/18 10:12:38;;;;;;;;;;;17.20;99.90;;;;;;5075584;28;19909;-61
2022/11/18 10:15:14;;;;;;;;;;;17.20;99.90;;;;;;5041471;28;20578;-61
2022/11/18 10:17:40;;;;;;;;;;;17.20;99.90;;;;;;5075509;28;19909;-62
2022/11/18 10:20:17;;;;;;;;;;;17.20;99.90;;;;;;5074770;28;19920;-62
2022/11/18 10:22:44;;;;;;;;;;;17.30;99.90;;;;;;5075675;28;19912;-62
2022/11/18 10:25:15;;;;;;;;;;;17.20;99.90;;;;;;5075411;28;20281;-62
2022/11/18 10:27:43;;;;;;;;;;;17.20;99.90;;;;;;5075708;28;20313;-62
2022/11/18 10:30:16;;;;;;;;;;;17.20;99.90;;;;;;5075217;28;19908;-62
2022/11/18 10:33:02;;;;;;;;;;;17.20;99.90;;;;;;5075309;28;20355;-68
2022/11/18 10:35:30;;;;;;;;;;;17.10;99.90;;;;;;5074189;28;20390;-62
2022/11/18 10:38:01;;;;;;;;;;;17.10;99.90;;;;;;5075040;28;19912;-65
2022/11/18 10:40:29;;;;;;;;;;;17.10;99.90;;;;;;5075166;28;20273;-65
2022/11/18 10:42:55;;;;;;;;;;;17.10;99.90;;;;;;5074703;28;19908;-65
2022/11/18 10:45:22;;;;;;;;;;;17.10;99.90;;;;;;5074793;28;19962;-65
2022/11/18 10:48:07;;;;;;;;;;;17.10;99.90;;;;;;5074060;28;20310;-65
2022/11/18 10:50:39;;;;;;;;;;;17.10;99.90;;;;;;5074015;28;19908;-63
2022/11/18 10:53:06;;;;;;;;;;;17.10;99.90;;;;;;5072801;28;19916;-64
2022/11/18 10:55:33;;;;;;;;;;;17.10;99.90;;;;;;5074393;28;19920;-63
2022/11/18 10:58:07;;;;;;;;;;;17.10;99.90;;;;;;5074691;28;20015;-67
2022/11/18 11:00:34;;;;;;;;;;;17.10;99.90;;;;;;5074494;28;19915;-67
2022/11/18 11:03:01;;;;;;;;;;;17.00;99.90;;;;;;5074472;28;19908;-68
2022/11/18 11:05:27;;;;;;;;;;;17.00;99.90;;;;;;5073413;28;19967;-68
2022/11/18 11:08:26;;;;;;;;;;;17.00;99.90;;;;;;5073049;28;19917;-68
2022/11/18 11:10:54;;;;;;;;;;;17.00;99.90;;;;;;5029968;28;19963;-68
2022/11/18 11:13:22;;;;;;;;;;;17.00;99.90;;;;;;5074337;28;19913;-66
2022/11/18 11:15:51;;;;;;;;;;;17.00;99.90;;;;;;5074321;28;19909;-67
2022/11/18 11:18:41;;;;;;;;;;;17.00;99.90;;;;;;5074479;28;20309;-67
2022/11/18 11:21:15;;;;;;;;;;;17.00;99.90;;;;;;5074433;28;19919;-67
2022/11/18 11:23:42;;;;;;;;;;;17.00;99.90;;;;;;5072651;28;19912;-67
2022/11/18 11:26:12;;;;;;;;;;;17.00;99.90;;;;;;5073284;28;19984;-68
2022/11/18 11:28:48;;;;;;;;;;;16.90;99.90;;;;;;5074056;28;19915;-68
2022/11/18 11:31:23;;;;;;;;;;;16.90;99.90;;;;;;5073992;28;20481;-68
2022/11/18 11:34:07;;;;;;;;;;;16.90;99.90;;;;;;5074001;28;20270;-68
2022/11/18 11:36:44;;;;;;;;;;;16.90;99.90;;;;;;5073181;28;19915;-68
2022/11/18 11:39:11;;;;;;;;;;;16.90;99.90;;;;;;5053979;28;19920;-68
2022/11/18 11:41:58;;;;;;;;;;;16.90;99.90;;;;;;5070757;28;19908;-68
2022/11/18 11:44:49;;;;;;;;;;;17.00;99.90;;;;;;5073753;28;19912;-66
2022/11/18 11:50:27;;;;;;;;;;;16.90;99.90;;;;;;5073797;28;19916;-69
2022/11/18 11:53:02;;;;;;;;;;;16.90;99.90;;;;;;5072721;28;19915;-68
2022/11/18 11:55:55;;;;;;;;;;;16.90;99.90;;;;;;5073574;28;19921;-68
2022/11/18 11:58:32;;;;;;;;;;;16.90;99.90;;;;;;5069757;28;19908;-68
2022/11/18 12:01:13;;;;;;;;;;;16.80;99.90;;;;;;5073114;28;20286;-67
2022/11/18 12:03:44;;;;;;;;;;;16.70;99.90;;;;;;5073728;28;19936;-69
2022/11/18 12:06:11;;;;;;;;;;;16.70;99.90;;;;;;5072658;28;20339;-67
2022/11/18 12:08:40;;;;;;;;;;;16.70;99.90;;;;;;5073381;28;19974;-67
2022/11/18 12:11:26;;;;;;;;;;;16.70;99.90;;;;;;5073221;28;20056;-66
2022/11/18 12:13:57;;;;;;;;;;;16.70;99.90;;;;;;5073154;28;19916;-62
2022/11/18 12:16:35;;;;;;;;;;;16.70;99.90;;;;;;5073324;28;19916;-62
2022/11/18 12:19:08;;;;;;;;;;;16.70;99.90;;;;;;5073221;28;19915;-61
2022/11/18 12:21:44;;;;;;;;;;;16.70;99.90;;;;;;5072343;28;19959;-62
2022/11/18 12:24:35;;;;;;;;;;;16.60;99.90;;;;;;5073367;28;19909;-62
2022/11/18 12:27:03;;;;;;;;;;;16.60;99.90;;;;;;5065831;28;19995;-62
2022/11/18 12:29:42;;;;;;;;;;;16.60;99.90;;;;;;5073264;28;20286;-62
2022/11/18 12:32:27;;;;;;;;;;;16.60;99.90;;;;;;5073291;28;19909;-62
2022/11/18 12:35:16;;;;;;;;;;;16.60;99.90;;;;;;5073042;28;19956;-62
2022/11/18 12:37:43;;;;;;;;;;;16.60;99.90;;;;;;5064306;28;19913;-64
2022/11/18 12:40:11;;;;;;;;;;;16.50;99.90;;;;;;5073482;28;19909;-63
2022/11/18 12:45:53;;;;;;;;;;;16.50;99.90;;;;;;5073141;28;19958;-62
2022/11/18 12:48:33;;;;;;;;;;;16.50;99.90;;;;;;5060022;28;19961;-62
2022/11/18 12:51:02;;;;;;;;;;;16.50;99.90;;;;;;5070900;28;19916;-66
2022/11/18 12:53:31;;;;;;;;;;;16.40;99.90;;;;;;5071209;28;19920;-62
2022/11/18 12:55:58;;;;;;;;;;;16.40;99.90;;;;;;5073027;28;19925;-62
2022/11/18 12:58:25;;;;;;;;;;;16.40;99.90;;;;;;5073032;28;19962;-68
2022/11/18 13:01:06;;;;;;;;;;;16.50;99.90;;;;;;5072705;28;19967;-69
2022/11/18 13:03:33;;;;;;;;;;;16.50;99.90;;;;;;5072903;28;19908;-67
2022/11/18 13:06:19;;;;;;;;;;;16.50;99.90;;;;;;5072132;28;19960;-68
2022/11/18 13:08:57;;;;;;;;;;;16.50;99.90;;;;;;5072510;28;19915;-64
2022/11/18 13:20:35;;;;;;;;;;;16.50;99.90;;;;;;5076217;28;20893;-68
2022/11/18 13:25:49;;;;;;;;;;;16.40;99.90;;;;;;5076898;28;19915;-68
2022/11/18 13:28:16;;;;;;;;;;;16.50;99.90;;;;;;5076542;28;19909;-68
2022/11/18 13:30:56;;;;;;;;;;;16.50;99.90;;;;;;5076514;28;20252;-68
2022/11/18 13:33:23;;;;;;;;;;;16.50;99.90;;;;;;5076418;28;19924;-64
2022/11/18 13:35:49;;;;;;;;;;;16.50;99.90;;;;;;5075530;28;19916;-66
2022/11/18 13:38:18;;;;;;;;;;;16.50;99.90;;;;;;5076323;28;19913;-68
2022/11/18 13:41:11;;;;;;;;;;;16.50;99.90;;;;;;5076260;28;19909;-63
2022/11/18 13:43:32;;;;;;;;;;;16.40;99.90;;;;;;5076040;28;19916;-68
2022/11/18 13:46:01;;;;;;;;;;;16.40;99.90;;;;;;5076149;28;19995;-62
2022/11/18 13:48:28;;;;;;;;;;;16.40;99.90;;;;;;5076048;28;19916;-68
2022/11/18 13:50:55;;;;;;;;;;;16.40;99.90;;;;;;5075089;28;19913;-63
2022/11/18 13:53:34;;;;;;;;;;;16.40;99.90;;;;;;5075522;28;19946;-68
2022/11/18 13:56:05;;;;;;;;;;;16.30;99.90;;;;;;5076026;28;19927;-67
2022/11/18 13:58:39;;;;;;;;;;;16.30;99.90;;;;;;5076009;28;19912;-68
2022/11/18 14:01:14;;;;;;;;;;;16.30;99.90;;;;;;5075557;28;19909;-65
2022/11/18 14:03:41;;;;;;;;;;;16.30;99.90;;;;;;5075936;28;19909;-65
2022/11/18 14:06:07;;;;;;;;;;;16.20;99.90;;;;;;5075219;28;19920;-68
2022/11/18 14:08:35;;;;;;;;;;;16.20;99.90;;;;;;5075587;28;19908;-66
2022/11/18 14:11:03;;;;;;;;;;;16.30;99.90;;;;;;5075482;28;20001;-67
2022/11/18 14:13:31;;;;;;;;;;;16.20;99.90;;;;;;5075547;28;19923;-67
2022/11/18 14:15:59;;;;;;;;;;;16.20;99.90;;;;;;5075470;28;20440;-67
2022/11/18 14:18:36;;;;;;;;;;;16.30;99.90;;;;;;5075700;28;20302;-69
2022/11/18 14:21:04;;;;;;;;;;;16.30;99.90;;;;;;5074106;28;19958;-69
2022/11/18 14:23:35;;;;;;;;;;;16.30;99.90;;;;;;5074624;28;19955;-67
2022/11/18 14:26:03;;;;;;;;;;;16.30;99.90;;;;;;5075441;28;20343;-68
2022/11/18 14:28:32;;;;;;;;;;;16.30;99.90;;;;;;5075453;28;19931;-68
2022/11/18 14:31:02;;;;;;;;;;;16.30;99.90;;;;;;5075202;28;19909;-67
2022/11/18 14:33:35;;;;;;;;;;;16.30;99.90;;;;;;5074783;28;19916;-65
2022/11/18 14:36:08;;;;;;;;;;;16.20;99.90;;;;;;5055273;28;19909;-66
2022/11/18 14:38:37;;;;;;;;;;;16.30;99.90;;;;;;5055236;28;19909;-69
2022/11/18 14:41:05;;;;;;;;;;;16.20;99.90;;;;;;5054939;28;19916;-69
2022/11/18 14:43:32;;;;;;;;;;;16.20;99.90;;;;;;5055026;28;20004;-66
2022/11/18 14:46:01;;;;;;;;;;;16.20;99.90;;;;;;5055049;28;19916;-68
2022/11/18 14:48:29;;;;;;;;;;;16.10;99.90;;;;;;5056291;28;20371;-68
2022/11/18 14:50:56;;;;;;;;;;;16.10;99.90;;;;;;5074785;28;19908;-67
2022/11/18 14:53:23;;;;;;;;;;;16.10;99.90;;;;;;5074867;28;19924;-68
2022/11/18 14:55:56;;;;;;;;;;;16.10;99.90;;;;;;5074826;28;19920;-68
2022/11/18 14:58:22;;;;;;;;;;;16.10;99.90;;;;;;5074983;28;20045;-69
2022/11/18 15:00:49;;;;;;;;;;;16.00;99.90;;;;;;5074559;28;19909;-68